Time;durP1;ratioP1;P1;durP2;ratioP2;P2;SDS_P1;SDS_P2;PMS_P1;PMS_P2;Temp;Humidity;BMP_temperature;BMP_pressure;BME280_temperature;BME280_humidity;BME280_pressure;Samples;Min_cycle;Max_cycle;Signal;HPM_P1;HPM_P2
2022/12/09 00:06:59;;;;;;;23.98;10.75;;;0.20;99.90;;;;;;21081545;28;20067;-77
2022/12/09 00:17:00;;;;;;;24.75;11.77;;;0.20;99.90;;;;;;21077019;28;20055;-76
2022/12/09 00:27:00;;;;;;;23.45;10.98;;;0.20;99.90;;;;;;21075864;28;20683;-76
2022/12/09 00:37:01;;;;;;;24.70;10.70;;;0.20;99.90;;;;;;21075173;28;20035;-76
2022/12/09 00:47:02;;;;;;;26.00;11.18;;;0.20;99.90;;;;;;21055883;28;20028;-76
2022/12/09 00:57:03;;;;;;;33.47;12.25;;;0.30;99.90;;;;;;21054378;28;20043;-76
2022/12/09 01:07:03;;;;;;;24.52;11.40;;;0.40;99.90;;;;;;21072256;28;20561;-76
2022/12/09 01:17:04;;;;;;;26.02;11.90;;;0.40;99.90;;;;;;21055005;28;20093;-76
2022/12/09 01:27:05;;;;;;;29.52;11.45;;;0.30;99.90;;;;;;21067599;28;20024;-76
2022/12/09 01:37:06;;;;;;;26.20;10.18;;;0.30;99.90;;;;;;21060395;28;20024;-74
2022/12/09 01:47:21;;;;;;;21.75;9.63;;;0.40;99.90;;;;;;21087899;28;20123;-76
2022/12/09 01:57:21;;;;;;;23.52;9.98;;;0.50;99.90;;;;;;21086717;28;20516;-76
2022/12/09 02:07:22;;;;;;;22.63;10.18;;;0.50;99.90;;;;;;21068401;28;20035;-76
2022/12/09 02:17:39;;;;;;;19.75;8.50;;;0.50;99.90;;;;;;21090030;28;20031;-76
2022/12/09 02:28:10;;;;;;;23.00;9.98;;;0.50;99.90;;;;;;21032767;28;20074;-75
2022/12/09 02:38:20;;;;;;;25.25;9.75;;;0.50;99.90;;;;;;21055405;28;20036;-76
2022/12/09 02:48:35;;;;;;;23.48;10.00;;;0.50;99.90;;;;;;21063539;28;20051;-76
2022/12/09 02:58:37;;;;;;;19.42;9.48;;;0.50;99.90;;;;;;21064192;28;20032;-76
2022/12/09 03:08:59;;;;;;;20.58;9.93;;;0.50;99.90;;;;;;21080138;28;20577;-76
2022/12/09 03:19:13;;;;;;;27.05;10.10;;;0.40;99.90;;;;;;21080753;28;20099;-76
2022/12/09 03:29:22;;;;;;;24.20;10.40;;;0.40;99.90;;;;;;21075428;28;20062;-76
2022/12/09 03:39:27;;;;;;;24.80;9.98;;;0.20;99.90;;;;;;21078757;28;20020;-77
2022/12/09 03:49:28;;;;;;;25.55;11.80;;;0.10;99.90;;;;;;21078109;28;20394;-76
2022/12/09 03:59:35;;;;;;;26.20;12.07;;;0.00;99.90;;;;;;21077069;28;20081;-76
2022/12/09 04:09:36;;;;;;;24.67;11.50;;;0.00;99.90;;;;;;21076792;28;20031;-78
2022/12/09 04:19:37;;;;;;;31.88;12.07;;;0.00;99.90;;;;;;21075330;28;20020;-77
2022/12/09 04:29:38;;;;;;;34.38;13.02;;;-0.10;99.90;;;;;;21075103;28;20062;-78
2022/12/09 04:39:40;;;;;;;26.65;12.40;;;-0.10;99.90;;;;;;21073839;28;20480;-78
2022/12/09 04:49:41;;;;;;;38.45;14.00;;;-0.10;99.90;;;;;;21028584;28;20459;-77
2022/12/09 04:59:41;;;;;;;33.70;14.30;;;-0.10;99.90;;;;;;21014174;28;20031;-79
2022/12/09 05:09:42;;;;;;;34.65;14.93;;;0.00;99.90;;;;;;21081082;28;20020;-77
2022/12/09 05:19:43;;;;;;;30.30;14.15;;;0.00;99.90;;;;;;21072194;28;20111;-78
2022/12/09 05:29:44;;;;;;;40.85;16.10;;;0.00;99.90;;;;;;21089476;28;20122;-78
2022/12/09 05:39:44;;;;;;;37.10;14.23;;;0.00;99.90;;;;;;21088404;28;20560;-78
2022/12/09 05:49:45;;;;;;;32.67;14.32;;;0.00;99.90;;;;;;21087782;28;20047;-77
2022/12/09 05:59:46;;;;;;;35.17;14.65;;;0.00;99.90;;;;;;21086905;28;20055;-78
2022/12/09 06:09:46;;;;;;;36.40;15.10;;;0.00;99.90;;;;;;21086054;28;20040;-78
2022/12/09 06:19:47;;;;;;;40.38;16.65;;;0.00;99.90;;;;;;21084972;28;20074;-77
2022/12/09 06:29:48;;;;;;;40.33;14.90;;;0.10;99.90;;;;;;21079106;28;20024;-77
2022/12/09 06:39:49;;;;;;;39.30;16.15;;;0.10;99.90;;;;;;21084007;28;22409;-76
2022/12/09 06:49:49;;;;;;;36.30;15.40;;;0.10;99.90;;;;;;21123311;28;20431;-77
2022/12/09 06:59:50;;;;;;;43.40;16.85;;;0.10;99.90;;;;;;21122917;28;20043;-78
2022/12/09 07:09:51;;;;;;;50.03;16.77;;;0.10;99.90;;;;;;21056301;28;20043;-77
2022/12/09 07:19:52;;;;;;;41.78;16.50;;;0.00;99.90;;;;;;20993979;28;20339;-77
2022/12/09 07:29:53;;;;;;;43.80;17.95;;;0.10;99.90;;;;;;21032571;28;20052;-76
2022/12/09 07:39:54;;;;;;;48.08;17.70;;;0.10;99.90;;;;;;21018122;28;20028;-78
2022/12/09 07:49:54;;;;;;;51.28;19.02;;;0.10;99.90;;;;;;21054617;28;20436;-78
2022/12/09 07:59:55;;;;;;;46.38;19.20;;;0.20;99.90;;;;;;21049302;28;20399;-77
2022/12/09 08:09:56;;;;;;;47.85;18.40;;;0.30;99.90;;;;;;21045539;28;20032;-77
2022/12/09 08:19:57;;;;;;;46.55;18.70;;;0.40;99.90;;;;;;21076002;28;20034;-78
2022/12/09 08:29:57;;;;;;;47.42;17.40;;;0.50;99.90;;;;;;21071261;28;20043;-77
2022/12/09 08:39:58;;;;;;;36.38;16.27;;;0.50;99.90;;;;;;21068752;28;20111;-77
2022/12/09 08:49:59;;;;;;;44.08;17.48;;;0.60;99.90;;;;;;21055296;28;20036;-77
2022/12/09 09:00:00;;;;;;;39.00;17.15;;;0.70;99.90;;;;;;21070817;28;20115;-77
2022/12/09 09:10:01;;;;;;;39.05;16.08;;;0.90;99.90;;;;;;21072722;28;20027;-77
2022/12/09 09:20:02;;;;;;;44.97;17.90;;;1.00;99.90;;;;;;21056785;28;20036;-77
2022/12/09 09:30:05;;;;;;;39.53;16.92;;;1.10;99.90;;;;;;21072337;28;20063;-78
2022/12/09 09:40:08;;;;;;;34.25;16.02;;;1.00;99.90;;;;;;21072260;28;20074;-77
2022/12/09 09:50:18;;;;;;;41.03;16.98;;;1.10;99.90;;;;;;21072255;28;20059;-78
2022/12/09 10:00:20;;;;;;;42.67;17.23;;;1.10;99.90;;;;;;21085647;28;20051;-78
2022/12/09 10:10:44;;;;;;;40.80;17.98;;;1.20;99.90;;;;;;21086358;28;20089;-77
2022/12/09 10:20:45;;;;;;;34.63;15.85;;;1.40;99.90;;;;;;21085628;28;20039;-77
2022/12/09 10:30:47;;;;;;;39.42;17.30;;;1.40;99.90;;;;;;21084024;28;20502;-77
2022/12/09 10:40:52;;;;;;;43.70;18.40;;;1.40;99.90;;;;;;21099245;28;20036;-77
2022/12/09 10:51:02;;;;;;;42.30;17.02;;;1.40;99.90;;;;;;21086192;28;20099;-78
2022/12/09 11:01:10;;;;;;;37.53;16.35;;;1.70;99.90;;;;;;21085655;28;20035;-78
2022/12/09 11:11:10;;;;;;;41.53;16.75;;;1.70;99.90;;;;;;21086509;28;20028;-78
2022/12/09 11:21:35;;;;;;;34.08;15.65;;;1.80;99.90;;;;;;21085847;28;20139;-78
2022/12/09 11:31:38;;;;;;;48.35;20.33;;;1.80;99.90;;;;;;21083840;28;20390;-78
2022/12/09 11:52:18;;;;;;;39.67;16.48;;;2.20;99.90;;;;;;21069395;28;20025;-78
2022/12/09 12:02:34;;;;;;;30.38;14.77;;;2.30;99.90;;;;;;21076510;28;20070;-78
2022/12/09 12:12:53;;;;;;;33.10;15.50;;;2.20;99.90;;;;;;21074689;28;20039;-78
2022/12/09 12:23:00;;;;;;;37.08;16.00;;;2.20;99.90;;;;;;21094118;28;20035;-79
2022/12/09 12:33:26;;;;;;;44.65;16.85;;;2.10;99.90;;;;;;21071716;28;20035;-78
2022/12/09 12:54:29;;;;;;;33.65;14.95;;;1.90;99.90;;;;;;21080414;28;20107;-78
2022/12/09 13:04:46;;;;;;;37.72;16.90;;;2.10;99.90;;;;;;21063638;28;20043;-78
2022/12/09 13:14:53;;;;;;;37.00;16.58;;;1.80;99.90;;;;;;21005482;28;20492;-78
2022/12/09 13:25:04;;;;;;;39.72;18.15;;;2.00;99.90;;;;;;21112254;22;20131;-80
2022/12/09 13:35:09;;;;;;;37.08;15.85;;;2.00;99.90;;;;;;21019316;28;20045;-81
2022/12/09 13:45:24;;;;;;;43.22;17.35;;;2.00;99.90;;;;;;20984701;28;20079;-82
2022/12/09 13:55:52;;;;;;;45.33;18.88;;;1.80;99.90;;;;;;20985024;28;20043;-80
2022/12/09 14:05:57;;;;;;;48.78;20.92;;;1.30;99.90;;;;;;20973174;28;20032;-80
2022/12/09 14:16:08;;;;;;;65.65;21.60;;;1.40;99.90;;;;;;20961758;28;20410;-80
2022/12/09 14:26:09;;;;;;;107.10;22.50;;;1.20;99.90;;;;;;20907523;28;20035;-81
2022/12/09 14:36:13;;;;;;;52.25;21.85;;;1.00;99.90;;;;;;20936316;28;20067;-81
2022/12/09 14:46:30;;;;;;;52.35;21.48;;;1.00;99.90;;;;;;21005417;28;20035;-80
2022/12/09 14:56:32;;;;;;;46.22;21.30;;;0.90;99.90;;;;;;20975780;28;20498;-80
2022/12/09 15:06:35;;;;;;;51.90;22.60;;;0.80;99.90;;;;;;20985811;28;20033;-79
2022/12/09 15:16:36;;;;;;;49.90;20.52;;;0.80;99.90;;;;;;20977913;28;20036;-81
2022/12/09 15:26:36;;;;;;;52.85;21.40;;;0.80;99.90;;;;;;21018707;28;20166;-79
2022/12/09 15:36:44;;;;;;;44.25;19.88;;;0.70;99.90;;;;;;21012890;28;20028;-81
2022/12/09 15:46:47;;;;;;;56.92;23.77;;;0.70;99.90;;;;;;20992761;28;20036;-80
2022/12/09 15:57:00;;;;;;;57.72;22.08;;;0.60;99.90;;;;;;20987609;28;20040;-80
2022/12/09 16:07:11;;;;;;;43.40;20.75;;;0.60;99.90;;;;;;20986487;28;20029;-81
2022/12/09 16:17:26;;;;;;;42.25;19.38;;;0.60;99.90;;;;;;20986672;28;20038;-80
2022/12/09 16:27:32;;;;;;;41.08;18.80;;;0.60;99.90;;;;;;20939330;28;20044;-79
2022/12/09 16:37:40;;;;;;;47.03;20.63;;;0.70;99.90;;;;;;20947592;28;20492;-81
2022/12/09 16:47:43;;;;;;;49.42;21.13;;;0.70;99.90;;;;;;20997925;28;20089;-81
2022/12/09 16:57:44;;;;;;;51.75;21.42;;;0.60;99.90;;;;;;21009753;28;20032;-80
2022/12/09 17:07:45;;;;;;;54.55;22.40;;;0.50;99.90;;;;;;20992460;28;20389;-80
2022/12/09 17:17:46;;;;;;;58.90;23.13;;;0.50;99.90;;;;;;20997614;28;20036;-80
2022/12/09 17:27:47;;;;;;;63.08;24.60;;;0.70;99.90;;;;;;21005846;28;20039;-78
2022/12/09 17:37:48;;;;;;;78.07;28.23;;;0.50;99.90;;;;;;20971186;28;20044;-79
2022/12/09 17:47:48;;;;;;;63.78;24.00;;;0.50;99.90;;;;;;20970251;28;20084;-79
2022/12/09 17:57:49;;;;;;;68.63;26.33;;;0.50;99.90;;;;;;21000567;28;20110;-79
2022/12/09 18:07:50;;;;;;;71.75;26.33;;;0.40;99.90;;;;;;20996303;28;20033;-81
2022/12/09 18:17:51;;;;;;;76.65;27.75;;;0.40;99.90;;;;;;20985825;28;20514;-81
2022/12/09 18:27:52;;;;;;;79.63;28.10;;;0.40;99.90;;;;;;20988805;28;20087;-82
2022/12/09 18:37:53;;;;;;;90.55;30.55;;;0.40;99.90;;;;;;20970603;28;20037;-84
2022/12/09 18:47:54;;;;;;;87.65;29.83;;;0.30;99.90;;;;;;20900367;28;20043;-83
2022/12/09 18:57:54;;;;;;;84.60;29.13;;;0.30;99.90;;;;;;20888762;28;20044;-81
2022/12/09 19:07:55;;;;;;;71.80;27.60;;;0.30;99.90;;;;;;20951817;28;20559;-81
2022/12/09 19:28:13;;;;;;;65.72;26.95;;;0.30;99.90;;;;;;20987142;28;20047;-80
2022/12/09 19:38:13;;;;;;;73.65;24.85;;;0.20;99.90;;;;;;21008663;28;20021;-80
2022/12/09 19:48:14;;;;;;;82.32;29.20;;;0.30;99.90;;;;;;20974461;28;20025;-80
2022/12/09 19:58:15;;;;;;;75.40;27.17;;;0.20;99.90;;;;;;21003448;28;20112;-79
2022/12/09 20:08:16;;;;;;;67.25;25.23;;;0.20;99.90;;;;;;20985858;28;20448;-79
2022/12/09 20:18:17;;;;;;;66.97;25.08;;;0.20;99.90;;;;;;20954619;28;20037;-80
2022/12/09 20:28:18;;;;;;;69.57;27.27;;;0.20;99.90;;;;;;20975481;28;20038;-81
2022/12/09 20:38:19;;;;;;;65.28;24.60;;;0.20;99.90;;;;;;20963416;28;20060;-82
2022/12/09 20:48:20;;;;;;;77.30;30.40;;;0.20;99.90;;;;;;20956594;28;20048;-79
2022/12/09 20:58:20;;;;;;;71.45;27.70;;;0.10;99.90;;;;;;20959306;28;20029;-80
2022/12/09 21:08:21;;;;;;;78.85;30.02;;;0.20;99.90;;;;;;20951844;28;20033;-80
2022/12/09 21:18:22;;;;;;;74.22;25.48;;;0.20;99.90;;;;;;20943228;28;20043;-79
2022/12/09 21:28:23;;;;;;;60.75;23.92;;;0.10;99.90;;;;;;20969311;28;20032;-80
2022/12/09 21:38:24;;;;;;;59.90;23.67;;;0.20;99.90;;;;;;20949549;28;20037;-78
2022/12/09 21:48:24;;;;;;;74.03;23.85;;;0.10;99.90;;;;;;20955686;28;20029;-81
2022/12/09 21:58:25;;;;;;;68.30;26.88;;;0.10;99.90;;;;;;20984613;28;20029;-79
2022/12/09 22:08:26;;;;;;;62.53;23.05;;;0.10;99.90;;;;;;21005194;28;20029;-79
2022/12/09 22:18:27;;;;;;;56.67;23.75;;;0.10;99.90;;;;;;20995873;28;20037;-79
2022/12/09 22:28:28;;;;;;;66.38;24.63;;;0.10;99.90;;;;;;20978771;28;20048;-81
2022/12/09 22:38:29;;;;;;;59.22;25.30;;;0.10;99.90;;;;;;20968753;28;20064;-80
2022/12/09 22:48:30;;;;;;;59.65;21.92;;;0.20;99.90;;;;;;20989053;28;20029;-79
2022/12/09 22:58:32;;;;;;;66.50;22.80;;;0.30;99.90;;;;;;20996317;28;20032;-80
2022/12/09 23:08:33;;;;;;;67.05;22.00;;;0.30;99.90;;;;;;20965097;28;20033;-79
2022/12/09 23:18:34;;;;;;;59.58;21.00;;;0.30;99.90;;;;;;20947920;28;20033;-78
2022/12/09 23:28:37;;;;;;;55.65;22.70;;;0.30;99.90;;;;;;20940932;28;20040;-78
2022/12/09 23:38:39;;;;;;;65.40;23.73;;;0.20;99.90;;;;;;20926853;28;20032;-79
2022/12/09 23:48:39;;;;;;;52.83;20.80;;;0.20;99.90;;;;;;20933522;28;20545;-78
2022/12/09 23:58:41;;;;;;;62.63;22.58;;;0.30;99.90;;;;;;20946630;28;20040;-79
